Time;durP1;ratioP1;P1;durP2;ratioP2;P2;SDS_P1;SDS_P2;PMS_P1;PMS_P2;Temp;Humidity;BMP_temperature;BMP_pressure;BME280_temperature;BME280_humidity;BME280_pressure;Samples;Min_cycle;Max_cycle;Signal;HPM_P1;HPM_P2
2021/12/15 00:02:18;;;;;;;11.63;6.22;;;;;;;4.56;100.00;97814.28;5054137;28;20045;-71
2021/12/15 00:04:45;;;;;;;13.70;6.57;;;;;;;4.68;100.00;97809.38;5060316;28;20466;-71
2021/12/15 00:07:11;;;;;;;10.75;5.82;;;;;;;4.73;100.00;97805.19;5055997;28;20291;-71
2021/12/15 00:09:37;;;;;;;14.20;7.88;;;;;;;4.61;100.00;97809.28;5057418;28;20132;-71
2021/12/15 00:12:04;;;;;;;16.23;7.65;;;;;;;4.54;100.00;97808.31;5057736;28;20068;-72
2021/12/15 00:14:32;;;;;;;11.88;6.22;;;;;;;4.61;100.00;97808.44;5058507;28;20115;-71
2021/12/15 00:16:58;;;;;;;15.05;6.90;;;;;;;4.66;100.00;97811.38;5057751;28;20041;-71
2021/12/15 00:19:23;;;;;;;12.85;6.63;;;;;;;4.70;100.00;97812.69;5056761;28;20040;-71
2021/12/15 00:21:49;;;;;;;15.18;6.55;;;;;;;4.78;100.00;97812.59;5060488;28;20044;-71
2021/12/15 00:24:14;;;;;;;17.20;6.95;;;;;;;4.83;100.00;97810.25;5058713;28;20375;-71
2021/12/15 00:26:40;;;;;;;14.25;5.95;;;;;;;4.74;100.00;97817.44;5057698;28;20037;-71
2021/12/15 00:29:07;;;;;;;12.52;6.53;;;;;;;4.83;100.00;97814.72;5052945;28;20119;-71
2021/12/15 00:31:35;;;;;;;17.23;6.82;;;;;;;4.87;100.00;97811.53;5054791;28;20048;-71
2021/12/15 00:34:03;;;;;;;14.15;7.00;;;;;;;4.73;100.00;97813.13;5064559;28;20471;-71
2021/12/15 00:36:29;;;;;;;12.82;5.88;;;;;;;4.66;100.00;97811.38;5067618;28;20060;-72
2021/12/15 00:38:55;;;;;;;13.50;5.93;;;;;;;4.70;100.00;97812.69;5060946;28;20387;-70
2021/12/15 00:41:20;;;;;;;12.88;5.53;;;;;;;4.69;100.00;97816.34;5062744;28;20044;-71
2021/12/15 00:43:46;;;;;;;15.52;6.93;;;;;;;4.68;100.00;97815.50;5046073;28;20443;-71
2021/12/15 00:46:12;;;;;;;11.52;5.93;;;;;;;4.68;100.00;97812.84;5060663;28;20425;-71
2021/12/15 00:48:38;;;;;;;11.57;5.57;;;;;;;4.82;100.00;97821.00;5060810;28;20098;-71
2021/12/15 00:51:04;;;;;;;10.77;5.65;;;;;;;4.72;100.00;97814.13;5047008;28;20131;-73
2021/12/15 00:53:30;;;;;;;10.38;5.40;;;;;;;4.80;100.00;97815.06;5061265;28;20037;-72
2021/12/15 00:55:56;;;;;;;10.48;4.68;;;;;;;4.77;100.00;97810.13;5049851;28;20040;-73
2021/12/15 00:58:22;;;;;;;17.30;6.57;;;;;;;4.79;100.00;97808.94;5057023;28;20420;-71
2021/12/15 01:00:57;;;;;;;15.18;6.05;;;;;;;4.83;100.00;97809.44;5058438;28;20535;-71
2021/12/15 01:03:24;;;;;;;11.85;5.60;;;;;;;4.86;100.00;97817.84;5043587;28;20140;-71
2021/12/15 01:05:55;;;;;;;7.75;4.22;;;;;;;4.86;100.00;97820.50;5062601;28;20079;-71
2021/12/15 01:08:26;;;;;;;9.85;5.05;;;;;;;4.83;100.00;97814.72;5060463;28;20045;-71
2021/12/15 01:11:08;;;;;;;11.40;5.45;;;;;;;4.80;100.00;97807.13;5062766;28;20051;-71
2021/12/15 01:21:53;;;;;;;12.30;5.72;;;;;;;4.75;100.00;97819.09;5067568;28;20047;-70
2021/12/15 01:24:19;;;;;;;11.23;5.85;;;;;;;4.82;100.00;97821.84;5066036;28;20039;-70
2021/12/15 01:26:45;;;;;;;14.18;6.50;;;;;;;4.88;100.00;97818.47;5058011;28;20036;-71
2021/12/15 01:29:10;;;;;;;13.52;6.20;;;;;;;4.96;100.00;97813.09;5044711;28;20044;-73
2021/12/15 01:31:36;;;;;;;10.60;5.35;;;;;;;4.99;100.00;97819.91;5058399;28;20379;-71
2021/12/15 01:34:02;;;;;;;10.68;5.78;;;;;;;4.94;100.00;97822.25;5059410;28;20455;-73
2021/12/15 01:36:28;;;;;;;10.90;5.60;;;;;;;4.93;100.00;97820.59;5062651;28;20033;-71
2021/12/15 01:38:53;;;;;;;12.20;5.55;;;;;;;4.89;100.00;97824.59;5060635;28;20455;-71
2021/12/15 01:41:22;;;;;;;10.30;5.20;;;;;;;4.93;100.00;97823.25;5060130;28;20071;-71
2021/12/15 01:49:22;;;;;;;11.23;5.07;;;;;;;5.15;100.00;97832.19;5046304;28;20372;-70
2021/12/15 01:51:48;;;;;;;9.15;4.82;;;;;;;5.18;100.00;97824.66;5060921;28;20089;-70
2021/12/15 01:54:16;;;;;;;9.23;4.63;;;;;;;5.22;100.00;97831.28;5046530;28;20040;-70
2021/12/15 01:56:42;;;;;;;10.68;4.68;;;;;;;5.18;100.00;97829.97;5059544;28;20029;-70
2021/12/15 01:59:09;;;;;;;10.57;4.50;;;;;;;5.21;100.00;97831.44;5043026;28;20025;-70
2021/12/15 02:01:35;;;;;;;9.43;5.05;;;;;;;5.26;100.00;97842.34;5058097;28;20090;-71
2021/12/15 02:04:01;;;;;;;9.50;4.95;;;;;;;5.25;100.00;97832.72;5046588;28;20060;-70
2021/12/15 02:06:28;;;;;;;13.30;5.13;;;;;;;5.27;100.00;97830.72;5057542;28;20045;-70
2021/12/15 02:08:53;;;;;;;11.38;5.00;;;;;;;5.29;100.00;97831.34;5047827;28;20154;-71
2021/12/15 02:11:19;;;;;;;9.52;4.82;;;;;;;5.35;100.00;97840.44;5060508;28;20467;-71
2021/12/15 02:13:45;;;;;;;10.65;5.07;;;;;;;5.32;100.00;97837.13;5060582;28;20037;-71
2021/12/15 02:16:11;;;;;;;9.20;4.57;;;;;;;5.29;100.00;97840.16;5061128;28;20044;-71
2021/12/15 02:18:42;;;;;;;12.23;5.32;;;;;;;5.30;100.00;97836.50;5046746;28;20387;-70
2021/12/15 02:21:11;;;;;;;11.55;6.05;;;;;;;5.28;100.00;97830.53;5057061;28;20495;-70
2021/12/15 02:23:42;;;;;;;10.30;4.80;;;;;;;5.23;100.00;97824.97;5060074;28;20531;-70
2021/12/15 02:26:14;;;;;;;10.63;5.20;;;;;;;5.24;100.00;97834.56;5059300;28;20029;-71
2021/12/15 02:28:48;;;;;;;13.23;6.30;;;;;;;5.20;100.00;97829.78;5049055;28;20063;-71
2021/12/15 02:31:51;;;;;;;16.25;6.25;;;;;;;5.22;100.00;97833.94;5056223;28;20040;-71
2021/12/15 02:39:30;;;;;;;11.43;5.57;;;;;;;5.20;100.00;97817.34;5066500;28;20356;-72
2021/12/15 02:41:56;;;;;;;16.75;5.60;;;;;;;5.20;100.00;97821.81;5045317;28;20032;-72
2021/12/15 02:44:24;;;;;;;10.13;5.18;;;;;;;5.17;100.00;97815.06;5049512;28;20499;-72
2021/12/15 02:46:52;;;;;;;17.58;5.82;;;;;;;5.20;100.00;97822.66;5061534;28;20482;-72
2021/12/15 02:49:21;;;;;;;12.55;5.60;;;;;;;5.16;100.00;97825.88;5058715;28;20025;-71
2021/12/15 02:51:49;;;;;;;13.85;5.38;;;;;;;5.17;100.00;97828.34;5059237;28;20033;-72
2021/12/15 02:54:17;;;;;;;11.88;5.75;;;;;;;5.18;100.00;97824.66;5059356;28;20068;-72
2021/12/15 02:56:44;;;;;;;10.60;4.90;;;;;;;5.18;100.00;97823.84;5059377;28;20391;-72
2021/12/15 02:59:13;;;;;;;13.80;6.05;;;;;;;5.14;100.00;97826.06;5059036;28;20028;-75
2021/12/15 03:04:42;;;;;;;11.48;5.85;;;;;;;5.20;100.00;97820.00;5064881;28;20102;-72
2021/12/15 03:15:37;;;;;;;16.20;6.30;;;;;;;5.28;100.00;97825.22;5059971;28;20396;-72
2021/12/15 03:18:05;;;;;;;15.95;6.47;;;;;;;5.27;100.00;97828.88;5057987;28;20973;-72
2021/12/15 03:20:49;;;;;;;12.85;6.35;;;;;;;5.19;100.00;97826.31;5060293;28;20055;-72
2021/12/15 03:23:34;;;;;;;19.35;7.63;;;;;;;5.14;100.00;97815.44;5060691;28;20031;-72
2021/12/15 03:26:01;;;;;;;18.65;7.55;;;;;;;5.22;100.00;97820.66;5056839;28;20040;-73
2021/12/15 03:39:22;;;;;;;15.50;5.90;;;;;;;5.20;100.00;97821.81;5060268;28;20104;-72
2021/12/15 03:41:57;;;;;;;17.45;7.45;;;;;;;5.24;100.00;97825.78;5058954;28;20029;-74
2021/12/15 03:44:23;;;;;;;15.98;6.95;;;;;;;5.14;100.00;97826.06;5059876;28;20065;-72
2021/12/15 03:46:48;;;;;;;18.65;7.43;;;;;;;5.02;100.00;97824.81;5059217;28;20024;-72
2021/12/15 03:49:14;;;;;;;20.10;7.15;;;;;;;4.99;100.00;97812.75;5056643;28;20712;-72
2021/12/15 03:51:39;;;;;;;20.30;8.30;;;;;;;5.08;100.00;97826.75;5058457;28;20036;-72
2021/12/15 03:54:06;;;;;;;20.65;7.30;;;;;;;5.13;100.00;97815.59;5057037;28;20455;-74
2021/12/15 03:56:35;;;;;;;17.60;6.70;;;;;;;5.16;100.00;97828.53;5055562;28;20029;-72
2021/12/15 03:59:01;;;;;;;18.25;7.38;;;;;;;5.19;100.00;97825.50;5056987;28;20501;-74
2021/12/15 04:01:27;;;;;;;17.83;7.88;;;;;;;5.26;100.00;97827.25;5055861;28;20127;-73
2021/12/15 04:03:54;;;;;;;15.02;6.57;;;;;;;5.27;100.00;97823.56;5059069;28;20040;-72
2021/12/15 04:06:28;;;;;;;15.68;7.25;;;;;;;5.22;100.00;97818.00;5055578;28;20456;-72
2021/12/15 04:08:55;;;;;;;14.57;5.97;;;;;;;5.11;100.00;97817.59;5060526;28;20053;-72
2021/12/15 04:11:23;;;;;;;14.23;6.75;;;;;;;5.19;100.00;97820.19;5057331;28;20566;-72
2021/12/15 04:13:51;;;;;;;20.55;7.47;;;;;;;5.18;100.00;97823.84;5058308;28;20028;-72
2021/12/15 04:19:20;;;;;;;16.90;6.82;;;;;;;5.14;100.00;97818.09;5032152;28;20053;-72
2021/12/15 04:21:46;;;;;;;12.13;6.05;;;;;;;5.10;100.00;97822.09;5055093;28;20033;-72
2021/12/15 04:24:14;;;;;;;14.88;6.60;;;;;;;5.09;100.00;97831.06;5057920;28;20627;-72
2021/12/15 04:26:41;;;;;;;14.48;6.93;;;;;;;5.06;100.00;97825.28;5056678;28;20074;-73
2021/12/15 04:29:06;;;;;;;19.40;7.93;;;;;;;5.01;100.00;97831.13;5058899;28;20034;-72
2021/12/15 04:31:35;;;;;;;13.45;6.38;;;;;;;4.96;100.00;97836.16;5058694;28;20036;-73
2021/12/15 04:34:04;;;;;;;15.35;7.03;;;;;;;5.01;100.00;97833.78;5057164;28;20032;-72
2021/12/15 04:36:35;;;;;;;13.75;6.15;;;;;;;5.04;100.00;97838.72;5057443;28;20033;-73
2021/12/15 04:39:03;;;;;;;18.35;8.00;;;;;;;5.01;100.00;97837.28;5058426;28;20044;-72
2021/12/15 04:41:29;;;;;;;17.27;7.60;;;;;;;5.00;100.00;97838.28;5059959;28;20100;-73
2021/12/15 04:43:59;;;;;;;21.10;8.15;;;;;;;4.99;100.00;97841.94;5057382;28;20139;-72
2021/12/15 04:46:28;;;;;;;17.17;7.57;;;;;;;5.01;100.00;97839.09;5058862;28;20071;-74
2021/12/15 04:48:54;;;;;;;20.63;7.95;;;;;;;5.02;100.00;97841.56;5056651;28;20055;-72
2021/12/15 04:51:20;;;;;;;19.13;7.60;;;;;;;4.98;100.00;97834.13;5056634;28;20037;-72
2021/12/15 04:53:47;;;;;;;19.02;8.27;;;;;;;4.99;100.00;97843.78;5056124;28;20052;-75
2021/12/15 04:56:13;;;;;;;18.05;7.95;;;;;;;4.94;100.00;97843.47;5059938;28;20036;-72
2021/12/15 04:58:38;;;;;;;21.15;9.10;;;;;;;4.86;100.00;97841.72;5054304;28;20382;-76
2021/12/15 05:01:06;;;;;;;19.88;8.20;;;;;;;4.91;100.00;97843.84;5039501;28;20052;-72
2021/12/15 05:03:31;;;;;;;19.33;7.80;;;;;;;4.95;100.00;97839.81;5055702;28;20041;-72
2021/12/15 05:05:57;;;;;;;16.80;7.90;;;;;;;5.00;100.00;97840.09;5057865;28;20037;-72
2021/12/15 05:08:23;;;;;;;21.58;8.35;;;;;;;4.96;100.00;97844.09;5057466;28;20714;-72
2021/12/15 05:10:50;;;;;;;19.80;7.80;;;;;;;4.90;100.00;97843.03;5057910;28;20410;-73
2021/12/15 05:13:16;;;;;;;20.10;7.55;;;;;;;4.88;100.00;97847.66;5057685;28;20490;-72
2021/12/15 05:15:42;;;;;;;25.13;8.55;;;;;;;4.92;100.00;97845.50;5060462;28;20461;-73
2021/12/15 05:18:08;;;;;;;22.48;7.97;;;;;;;4.92;100.00;97843.66;5057686;28;20505;-71
2021/12/15 05:20:36;;;;;;;18.48;8.38;;;;;;;5.03;100.00;97845.03;5057408;28;20036;-72
2021/12/15 05:23:03;;;;;;;19.35;8.98;;;;;;;4.94;100.00;97840.81;5056325;28;20056;-72
2021/12/15 05:25:29;;;;;;;22.55;8.80;;;;;;;4.96;100.00;97844.94;5060233;28;20566;-73
2021/12/15 05:27:54;;;;;;;18.88;9.05;;;;;;;4.79;100.00;97845.25;5059365;28;20132;-71
2021/12/15 05:30:20;;;;;;;22.35;9.63;;;;;;;4.73;100.00;97847.59;5060460;28;20029;-71
2021/12/15 05:32:48;;;;;;;16.65;7.05;;;;;;;4.72;100.00;97853.91;5060833;28;20063;-71
2021/12/15 05:35:20;;;;;;;17.95;7.93;;;;;;;4.73;100.00;97854.72;5061072;28;20471;-71
2021/12/15 05:37:47;;;;;;;20.77;8.73;;;;;;;4.80;100.00;97850.38;5061616;28;20048;-71
2021/12/15 05:40:13;;;;;;;19.75;8.63;;;;;;;4.73;100.00;97857.38;5061974;28;20123;-71
2021/12/15 05:42:39;;;;;;;21.27;8.23;;;;;;;4.66;100.00;97859.91;5062511;28;20202;-71
2021/12/15 05:45:07;;;;;;;19.67;7.88;;;;;;;4.61;100.00;97861.47;5061879;28;20043;-74
2021/12/15 05:47:32;;;;;;;20.35;8.25;;;;;;;4.65;100.00;97868.06;5057754;28;20133;-71
2021/12/15 05:49:58;;;;;;;23.08;9.57;;;;;;;4.73;100.00;97868.81;5060767;28;20052;-72
2021/12/15 05:52:28;;;;;;;18.10;8.93;;;;;;;4.81;100.00;97875.88;5062391;28;20103;-72
2021/12/15 05:54:53;;;;;;;14.77;7.15;;;;;;;4.68;100.00;97879.16;5059877;28;20044;-72
2021/12/15 05:57:19;;;;;;;20.05;7.68;;;;;;;4.68;100.00;97876.50;5060498;28;20490;-72
2021/12/15 05:59:45;;;;;;;15.52;6.95;;;;;;;4.62;100.00;97890.47;5060222;28;20043;-72
2021/12/15 06:02:10;;;;;;;23.65;8.88;;;;;;;4.58;100.00;97883.84;5057702;28;20075;-74
2021/12/15 06:04:36;;;;;;;19.17;7.88;;;;;;;4.63;100.00;97889.44;5061700;28;20075;-74
2021/12/15 06:07:03;;;;;;;23.77;8.10;;;;;;;4.57;100.00;97891.97;5058893;28;20514;-73
2021/12/15 06:09:28;;;;;;;15.43;5.95;;;;;;;4.57;100.00;97898.09;5060058;28;20105;-72
2021/12/15 06:11:54;;;;;;;7.72;3.65;;;;;;;4.52;100.00;97892.53;5060723;28;20471;-72
2021/12/15 06:14:24;;;;;;;14.07;6.18;;;;;;;4.54;100.00;97892.34;5059811;28;20305;-73
2021/12/15 06:16:58;;;;;;;12.77;5.75;;;;;;;4.52;100.00;97892.53;5058811;28;20037;-73
2021/12/15 06:19:24;;;;;;;13.95;6.93;;;;;;;4.52;100.00;97881.09;5060777;28;20452;-72
2021/12/15 06:21:50;;;;;;;12.13;6.03;;;;;;;4.54;100.00;97887.03;5064291;28;20053;-72
2021/12/15 06:24:16;;;;;;;16.55;6.35;;;;;;;4.50;100.00;97889.19;5056815;28;20118;-71
2021/12/15 06:26:42;;;;;;;14.00;6.28;;;;;;;4.57;100.00;97891.97;5059163;28;20203;-73
2021/12/15 06:29:08;;;;;;;18.00;7.22;;;;;;;4.53;100.00;97888.03;5043349;28;20124;-71
2021/12/15 06:31:34;;;;;;;16.85;7.55;;;;;;;4.55;100.00;97893.97;5058041;28;20051;-73
2021/12/15 06:34:00;;;;;;;23.58;7.88;;;;;;;4.57;100.00;97890.16;5061072;28;20044;-72
2021/12/15 06:36:27;;;;;;;17.75;7.57;;;;;;;4.66;100.00;97905.00;5058767;28;20029;-74
2021/12/15 06:38:54;;;;;;;19.52;7.70;;;;;;;4.66;100.00;97902.34;5054454;28;20064;-71
2021/12/15 06:41:20;;;;;;;19.67;7.70;;;;;;;4.74;100.00;97896.97;5058379;28;20021;-73
2021/12/15 06:43:50;;;;;;;19.20;8.40;;;;;;;4.84;100.00;97901.25;5058757;28;20055;-72
2021/12/15 06:59:43;;;;;;;15.85;6.88;;;;;;;5.02;100.00;97926.47;5058945;28;20048;-72
2021/12/15 07:02:09;;;;;;;17.88;7.60;;;;;;;5.00;100.00;97931.13;5057910;28;20045;-72
2021/12/15 07:04:34;;;;;;;18.42;8.13;;;;;;;4.96;100.00;97929.00;5059885;28;20047;-72
2021/12/15 07:07:04;;;;;;;17.65;7.43;;;;;;;4.90;100.00;97929.69;5058423;28;20557;-71
2021/12/15 07:09:30;;;;;;;12.45;5.72;;;;;;;4.87;100.00;97932.72;5058708;28;20331;-72
2021/12/15 07:11:56;;;;;;;11.95;5.95;;;;;;;4.79;100.00;97932.78;5060036;28;20033;-72
2021/12/15 07:14:22;;;;;;;13.40;6.63;;;;;;;4.69;100.00;97930.34;5059055;28;20052;-71
2021/12/15 07:16:51;;;;;;;15.68;7.00;;;;;;;4.69;100.00;97931.19;5044454;28;20487;-71
2021/12/15 07:21:52;;;;;;;12.98;6.07;;;;;;;4.69;100.00;97938.31;5056830;28;20028;-71
2021/12/15 07:24:18;;;;;;;8.52;3.97;;;;;;;4.68;100.00;97942.78;5056329;28;20048;-71
2021/12/15 07:26:47;;;;;;;10.93;4.88;;;;;;;4.71;100.00;97950.38;5042745;28;20100;-72
2021/12/15 07:29:12;;;;;;;12.35;6.15;;;;;;;4.83;100.00;97942.88;5045156;28;20047;-74
2021/12/15 07:31:38;;;;;;;13.60;5.55;;;;;;;4.93;100.00;97953.25;5055166;28;20041;-74
2021/12/15 07:34:04;;;;;;;14.65;6.55;;;;;;;4.94;100.00;97949.59;5060075;28;20060;-73
2021/12/15 07:36:29;;;;;;;12.38;5.93;;;;;;;4.92;100.00;97952.41;5056058;28;20033;-71
2021/12/15 07:38:57;;;;;;;12.75;5.72;;;;;;;5.00;100.00;97952.34;5058234;28;20040;-71
2021/12/15 07:41:28;;;;;;;15.75;5.80;;;;;;;5.00;100.00;97959.50;5057031;28;20025;-71
2021/12/15 07:43:56;;;;;;;15.07;5.75;;;;;;;4.98;100.00;97957.03;5055449;28;20040;-72
2021/12/15 07:46:22;;;;;;;13.85;5.93;;;;;;;5.02;100.00;97953.00;5056195;28;20025;-71
2021/12/15 07:48:48;;;;;;;13.30;5.75;;;;;;;5.04;100.00;97958.13;5050062;28;20105;-72
2021/12/15 07:51:14;;;;;;;11.25;5.45;;;;;;;5.03;100.00;97964.44;5058327;28;20036;-71
2021/12/15 07:53:41;;;;;;;12.23;6.40;;;;;;;5.03;100.00;97969.75;5058850;28;20041;-71
2021/12/15 07:56:07;;;;;;;12.32;6.32;;;;;;;5.04;100.00;97966.91;5047578;28;20049;-71
2021/12/15 07:58:33;;;;;;;13.10;6.32;;;;;;;5.03;100.00;97962.59;5041628;28;20360;-71
2021/12/15 08:01:01;;;;;;;10.90;4.55;;;;;;;4.97;100.00;97959.81;5039487;28;20041;-72
2021/12/15 08:03:27;;;;;;;8.27;4.78;;;;;;;5.03;100.00;97964.44;5057820;28;20028;-71
2021/12/15 08:05:53;;;;;;;11.00;6.18;;;;;;;5.02;100.00;97955.66;5055120;28;20064;-73
2021/12/15 08:08:19;;;;;;;10.57;5.55;;;;;;;5.05;100.00;97965.06;5056069;28;20072;-71
2021/12/15 08:10:46;;;;;;;11.82;5.30;;;;;;;5.10;100.00;97969.88;5043522;28;20047;-71
2021/12/15 08:13:12;;;;;;;12.63;5.03;;;;;;;5.20;100.00;97975.75;5057917;28;20037;-71
2021/12/15 08:15:38;;;;;;;26.63;6.45;;;;;;;5.21;100.00;97972.09;5057544;28;20040;-71
2021/12/15 08:18:05;;;;;;;11.75;5.28;;;;;;;5.23;100.00;97976.25;5056885;28;20097;-71
2021/12/15 08:20:33;;;;;;;12.23;5.53;;;;;;;5.26;100.00;97981.19;5058541;28;20051;-72
2021/12/15 08:22:59;;;;;;;11.90;6.13;;;;;;;5.35;100.00;97971.31;5058381;28;20993;-71
2021/12/15 08:25:25;;;;;;;9.60;5.00;;;;;;;5.37;100.00;97968.47;5058251;28;20036;-71
2021/12/15 08:27:51;;;;;;;11.00;5.28;;;;;;;5.37;100.00;97971.13;5057330;28;20053;-71
2021/12/15 08:30:23;;;;;;;10.98;4.65;;;;;;;5.27;100.00;97974.88;5056185;28;20476;-71
2021/12/15 08:32:53;;;;;;;10.57;4.55;;;;;;;5.32;100.00;97971.69;5060740;28;20135;-71
2021/12/15 08:35:21;;;;;;;10.13;4.85;;;;;;;5.20;100.00;97968.63;5055389;28;20442;-73
2021/12/15 08:37:47;;;;;;;9.65;4.63;;;;;;;5.27;100.00;97966.91;5047490;28;20425;-72
2021/12/15 08:40:14;;;;;;;9.50;4.72;;;;;;;5.45;100.00;97973.75;5052564;28;20461;-70
2021/12/15 08:42:40;;;;;;;10.15;4.75;;;;;;;5.36;100.00;97974.78;5056137;28;20049;-71
2021/12/15 08:45:06;;;;;;;11.13;5.13;;;;;;;5.41;100.00;97972.44;5055337;28;20035;-72
2021/12/15 08:47:32;;;;;;;9.32;4.50;;;;;;;5.24;100.00;97982.38;5058626;28;20048;-71
2021/12/15 08:50:00;;;;;;;11.68;6.10;;;;;;;5.27;100.00;97972.22;5056524;28;20033;-71
2021/12/15 08:52:26;;;;;;;8.75;3.83;;;;;;;5.48;100.00;97976.03;5056424;28;20190;-71
2021/12/15 08:54:51;;;;;;;10.68;4.88;;;;;;;5.48;100.00;97976.03;5059116;28;20700;-71
2021/12/15 08:57:17;;;;;;;13.30;6.35;;;;;;;5.64;100.00;97965.25;5042490;28;20177;-72
2021/12/15 08:59:43;;;;;;;12.10;5.45;;;;;;;5.82;100.00;97975.53;5061052;28;20049;-71
2021/12/15 09:02:10;;;;;;;9.90;4.60;;;;;;;5.87;100.00;97976.66;5055898;28;20369;-71
2021/12/15 09:04:36;;;;;;;10.63;5.13;;;;;;;5.88;100.00;97980.13;5044289;28;20036;-73
2021/12/15 09:07:02;;;;;;;13.13;4.68;;;;;;;5.66;100.00;97981.00;5059442;28;20035;-71
2021/12/15 09:09:27;;;;;;;11.63;5.88;;;;;;;5.70;100.00;97982.31;5061338;28;20059;-71
2021/12/15 09:11:54;;;;;;;8.55;4.38;;;;;;;5.77;100.00;97973.44;5062039;28;20589;-72
2021/12/15 09:14:21;;;;;;;7.95;4.50;;;;;;;5.76;100.00;97979.78;5059679;28;20029;-71
2021/12/15 09:16:54;;;;;;;7.18;3.53;;;;;;;5.87;100.00;97976.66;5062070;28;20041;-71
2021/12/15 09:19:21;;;;;;;9.10;4.20;;;;;;;5.95;100.00;97983.75;5061329;28;20028;-72
2021/12/15 09:21:46;;;;;;;11.25;6.88;;;;;;;6.08;100.00;97975.16;5059354;28;20391;-72
2021/12/15 09:24:13;;;;;;;10.38;5.53;;;;;;;5.99;100.00;97977.06;5059845;28;20040;-72
2021/12/15 09:26:40;;;;;;;8.02;3.50;;;;;;;5.75;100.00;97983.41;5031226;28;20028;-72
2021/12/15 09:29:06;;;;;;;11.65;6.15;;;;;;;5.82;100.00;97984.34;5060362;28;20097;-71
2021/12/15 09:31:33;;;;;;;6.68;4.43;;;;;;;5.83;100.00;97983.31;5061409;28;20033;-71
2021/12/15 09:33:59;;;;;;;6.85;4.03;;;;;;;5.95;100.00;97991.72;5060504;28;20426;-73
2021/12/15 09:36:25;;;;;;;7.80;3.95;;;;;;;5.83;100.00;97985.97;5061521;28;20044;-72
2021/12/15 09:38:56;;;;;;;5.13;3.10;;;;;;;5.90;100.00;97994.06;5061839;28;20040;-72
2021/12/15 09:41:23;;;;;;;6.15;3.28;;;;;;;5.99;100.00;97990.38;5059772;28;20025;-71
2021/12/15 09:43:52;;;;;;;7.50;4.43;;;;;;;6.11;100.00;97982.75;5058513;28;20060;-72
2021/12/15 09:57:22;;;;;;;7.40;2.58;;;;;;;6.33;100.00;97981.84;5060555;28;20041;-71
2021/12/15 10:02:48;;;;;;;4.70;2.35;;;;;;;6.60;100.00;97984.81;5057719;28;20515;-71
2021/12/15 10:19:20;;;;;;;6.75;2.90;;;;;;;6.68;100.00;97990.03;5055243;28;20040;-71
2021/12/15 10:22:47;;;;;;;5.90;3.45;;;;;;;6.70;100.00;97988.84;5060022;28;20028;-72
2021/12/15 10:25:24;;;;;;;6.07;2.70;;;;;;;6.54;100.00;97985.59;5056239;28;20052;-71
2021/12/15 10:28:10;;;;;;;8.35;4.68;;;;;;;6.42;100.00;97986.03;5059479;28;20037;-71
2021/12/15 10:30:45;;;;;;;5.50;3.20;;;;;;;6.57;100.00;97982.53;5058486;28;20037;-72
2021/12/15 10:33:16;;;;;;;6.82;3.97;;;;;;;6.59;100.00;97993.81;5058799;28;20123;-72
2021/12/15 10:35:47;;;;;;;10.98;3.90;;;;;;;6.57;100.00;97985.19;5056599;28;20045;-72
2021/12/15 10:38:26;;;;;;;14.13;9.30;;;;;;;6.60;100.00;97979.50;5057642;28;20040;-71
2021/12/15 10:41:00;;;;;;;10.88;4.13;;;;;;;6.38;100.00;97983.91;5057348;28;20448;-71
2021/12/15 10:43:33;;;;;;;8.85;4.32;;;;;;;6.26;100.00;97980.91;5058244;28;20041;-73
2021/12/15 10:46:04;;;;;;;6.85;3.42;;;;;;;6.36;100.00;97988.59;5058850;28;20032;-71
2021/12/15 10:48:38;;;;;;;7.32;3.90;;;;;;;6.45;100.00;97989.31;5054365;28;20036;-71
2021/12/15 10:51:28;;;;;;;6.97;3.85;;;;;;;6.38;100.00;97991.91;5056841;28;20103;-71
2021/12/15 10:54:00;;;;;;;6.32;3.40;;;;;;;6.15;100.00;97992.03;5059279;28;20573;-72
2021/12/15 10:56:31;;;;;;;7.18;4.22;;;;;;;6.12;100.00;97985.22;5057557;28;20359;-71
2021/12/15 10:59:00;;;;;;;8.60;3.78;;;;;;;6.16;100.00;97982.22;5063377;28;20529;-71
2021/12/15 11:01:52;;;;;;;6.43;3.70;;;;;;;6.34;100.00;97988.78;5061609;28;20059;-71
2021/12/15 11:04:25;;;;;;;7.78;4.15;;;;;;;6.49;100.00;97991.44;5057810;28;20047;-71
2021/12/15 11:07:32;;;;;;;8.70;4.97;;;;;;;6.58;100.00;97989.50;5057384;28;20105;-71
2021/12/15 11:10:05;;;;;;;8.80;3.58;;;;;;;6.41;100.00;97987.06;5045590;28;20372;-71
2021/12/15 11:12:50;;;;;;;7.57;4.45;;;;;;;6.60;100.00;97990.97;5047461;28;20033;-72
2021/12/15 11:15:18;;;;;;;9.07;4.00;;;;;;;6.67;100.00;97991.03;5056569;28;20327;-71
2021/12/15 11:17:59;;;;;;;7.57;4.10;;;;;;;6.65;100.00;97987.75;5058113;28;20024;-71
2021/12/15 11:20:39;;;;;;;7.43;4.15;;;;;;;6.70;100.00;97988.03;5059481;28;20040;-72
2021/12/15 11:23:10;;;;;;;7.43;4.87;;;;;;;6.65;100.00;97985.09;5054562;28;20052;-71
2021/12/15 11:25:56;;;;;;;6.40;3.53;;;;;;;6.54;100.00;97985.59;5059049;28;20028;-71
2021/12/15 11:28:26;;;;;;;6.57;3.25;;;;;;;6.60;100.00;97979.50;5055545;28;20075;-71
2021/12/15 11:31:07;;;;;;;7.07;4.00;;;;;;;6.76;100.00;97983.78;5056177;28;20630;-72
2021/12/15 11:33:45;;;;;;;;;;;;;;;6.85;100.00;97980.84;5057173;28;20383;-71
2021/12/15 11:36:26;;;;;;;5.53;2.97;;;;;;;6.86;100.00;97963.84;5055346;28;20051;-71
2021/12/15 11:38:56;;;;;;;5.43;2.25;;;;;;;6.85;100.00;97972.84;5056216;28;20041;-72
2021/12/15 11:41:32;;;;;;;5.57;3.15;;;;;;;6.97;100.00;97967.84;5058018;28;20077;-71
2021/12/15 11:44:18;;;;;;;9.20;3.58;;;;;;;7.05;100.00;97961.59;5056036;28;20379;-71
2021/12/15 11:46:45;;;;;;;5.75;3.13;;;;;;;6.90;100.00;97965.13;5056265;28;20052;-72
2021/12/15 11:49:34;;;;;;;4.60;2.42;;;;;;;6.88;100.00;97966.31;5058010;28;20044;-71
2021/12/15 11:52:04;;;;;;;7.47;3.08;;;;;;;6.68;100.00;97961.59;5056369;28;20339;-71
2021/12/15 11:54:39;;;;;;;6.07;3.58;;;;;;;6.66;100.00;97958.31;5056926;28;20723;-71
2021/12/15 11:57:14;;;;;;;4.95;2.90;;;;;;;6.84;100.00;97960.53;5057046;28;20070;-72
2021/12/15 11:59:43;;;;;;;4.72;2.42;;;;;;;7.03;100.00;97966.28;5042850;28;20357;-72
2021/12/15 12:02:14;;;;;;;4.50;2.47;;;;;;;6.80;100.00;97959.28;5043033;28;20037;-72
2021/12/15 12:04:52;;;;;;;4.43;2.15;;;;;;;6.93;100.00;97955.94;5056601;28;20129;-71
2021/12/15 12:07:17;;;;;;;4.97;2.20;;;;;;;6.91;100.00;97964.09;5053957;28;20052;-71
2021/12/15 12:09:45;;;;;;;4.30;2.22;;;;;;;7.08;100.00;97963.84;5059695;28;20071;-73
2021/12/15 12:12:13;;;;;;;4.13;2.00;;;;;;;7.12;100.00;97957.16;5058273;28;20123;-71
2021/12/15 12:14:41;;;;;;;5.43;2.67;;;;;;;7.10;100.00;97956.53;5055972;28;20036;-71
2021/12/15 12:17:13;;;;;;;3.20;1.50;;;;;;;6.98;100.00;97965.00;5056087;28;20048;-72
2021/12/15 12:19:45;;;;;;;3.85;1.80;;;;;;;7.10;100.00;97967.16;5058055;28;20025;-72
2021/12/15 12:22:13;;;;;;;3.20;1.60;;;;;;;7.19;100.00;97963.38;5057138;28;20082;-72
2021/12/15 12:24:42;;;;;;;3.67;2.15;;;;;;;7.13;100.00;97959.63;5057584;28;20546;-71
2021/12/15 12:27:08;;;;;;;4.70;2.00;;;;;;;7.08;100.00;97958.53;5058046;28;20033;-71
2021/12/15 12:29:34;;;;;;;3.58;1.80;;;;;;;7.20;100.00;97957.03;5058766;28;20071;-72
2021/12/15 12:32:00;;;;;;;5.18;2.40;;;;;;;7.06;100.00;97957.91;5058706;28;20415;-71
2021/12/15 12:34:25;;;;;;;5.70;1.92;;;;;;;7.26;100.00;97954.44;5061153;28;20045;-72
2021/12/15 12:36:52;;;;;;;3.50;1.80;;;;;;;7.34;100.00;97953.47;5059846;28;20072;-71
2021/12/15 12:39:21;;;;;;;4.65;2.30;;;;;;;7.47;100.00;97950.94;5028035;28;20036;-72
2021/12/15 12:41:49;;;;;;;3.63;1.90;;;;;;;7.44;100.00;97945.97;5059850;28;20028;-72
2021/12/15 12:44:15;;;;;;;5.93;2.10;;;;;;;7.46;100.00;97953.75;5058988;28;20049;-72
2021/12/15 12:46:54;;;;;;;4.65;2.00;;;;;;;7.37;100.00;97947.75;5059082;28;20032;-71
2021/12/15 13:00:48;;;;;;;4.45;2.50;;;;;;;7.02;100.00;97940.69;5060849;28;20033;-71
2021/12/15 13:03:23;;;;;;;3.75;2.30;;;;;;;7.02;100.00;97946.00;5059715;28;20048;-73
2021/12/15 13:05:56;;;;;;;4.20;2.42;;;;;;;7.06;100.00;97939.28;5055504;28;20037;-71
2021/12/15 13:08:41;;;;;;;5.28;2.55;;;;;;;7.11;100.00;97939.53;5059095;28;20033;-72
2021/12/15 13:11:10;;;;;;;6.47;3.38;;;;;;;6.87;100.00;97938.06;5059412;28;20050;-71
2021/12/15 13:13:51;;;;;;;15.43;9.40;;;;;;;6.86;100.00;97931.94;5059742;28;20055;-73
2021/12/15 13:16:36;;;;;;;9.00;4.00;;;;;;;6.98;100.00;97940.22;5050079;28;20036;-72
2021/12/15 13:19:18;;;;;;;9.23;3.15;;;;;;;6.91;100.00;97937.47;5050923;28;20085;-72